Terminal Aerodrome Forecast
Issued by NWS Cleveland, OH

Home | Current Version | Previous Version | Graphics & Text | Print | Product List | Glossary On
Versions: 1 2 3 4 5 6 7 8 9 10 11 12 13 14 15 16 17 18 19 20 21
000
FTUS41 KCLE 132331
TAFYNG
TAF
KYNG 132331Z 1400/1424 15003KT P6SM SCT035
     FM140200 15003KT P6SM SKC
     FM140700 15003KT 6SM BR SKC
     FM140900 15003KT 3SM BR SKC
     FM141400 18005KT P6SM SCT250
     FM141900 18007KT P6SM SCT060=

USA.gov is the U.S. government's official web portal to all federal, state and local government web resources and services.